Brown City, Michigan
Current Conditions -  °F | °C
As of 2:53 PM on Sunday 23 Nov 2014 (Local Time) from KD95 Reporting Station
Broken Clouds Broken Clouds  
Wind Chill: 46°   Ceiling: 4300
Heat Index: 49°   Visibility: 10mi
Dew Point: 44°   Wind: 7mph
Humidity: 82%   Direction: 160°SSE
Pressure: 29.74"   Gusts: NA
Location:  43.21°N, 82.99°W
Report Text: KD95 231953Z AUTO 16006KT 10SM BKN043 09/07 A2974 RMK AO2 T00940065
Loading
Personal Weather Stations






























Interactive Weather Map New forecast layout! Learn more

10-Day Weather Forecast

Advertisements
Track Severe Weather on mobile